Time;durP1;ratioP1;P1;durP2;ratioP2;P2;SDS_P1;SDS_P2;PMS_P1;PMS_P2;Temp;Humidity;BMP_temperature;BMP_pressure;BME280_temperature;BME280_humidity;BME280_pressure;Samples;Min_cycle;Max_cycle;Signal;HPM_P1;HPM_P2
2023/02/18 00:02:11;;;;;;;4.20;1.80;;;;;;;5.88;87.23;101239.66;4901977;29;20047;-84
2023/02/18 00:04:38;;;;;;;9.23;1.38;;;;;;;5.90;87.53;101235.38;4898192;29;20051;-84
2023/02/18 00:07:05;;;;;;;3.42;1.23;;;;;;;5.95;87.50;101233.75;4928870;29;20588;-82
2023/02/18 00:09:32;;;;;;;9.40;1.52;;;;;;;5.91;87.55;101229.34;4933005;29;20071;-83
2023/02/18 00:11:58;;;;;;;9.68;1.27;;;;;;;5.91;87.74;101229.34;4927951;29;20079;-84
2023/02/18 00:14:25;;;;;;;8.80;1.20;;;;;;;5.87;88.03;101225.78;4918767;29;20048;-84
2023/02/18 00:16:52;;;;;;;5.15;1.13;;;;;;;5.81;88.69;101223.06;4926087;29;20052;-86
2023/02/18 00:19:20;;;;;;;11.57;1.75;;;;;;;5.85;88.69;101227.47;4914315;29;20075;-83
2023/02/18 00:21:47;;;;;;;9.38;1.60;;;;;;;5.96;88.16;101223.38;4898888;29;20134;-82
2023/02/18 00:24:16;;;;;;;6.15;1.30;;;;;;;5.98;87.77;101218.22;4911294;29;20071;-82
2023/02/18 00:26:43;;;;;;;9.95;2.75;;;;;;;5.97;87.85;101216.44;4923219;29;20061;-82
2023/02/18 00:29:10;;;;;;;10.85;1.42;;;;;;;5.96;88.17;101205.19;4913553;29;20059;-82
2023/02/18 00:31:40;;;;;;;7.93;1.50;;;;;;;5.94;88.36;101212.09;4903023;29;20896;-85
2023/02/18 00:34:07;;;;;;;5.13;1.60;;;;;;;5.94;88.49;101217.28;4916375;29;20143;-83
2023/02/18 00:36:35;;;;;;;8.07;1.27;;;;;;;6.01;88.61;101222.59;4912970;29;20064;-83
2023/02/18 00:39:05;;;;;;;11.10;1.20;;;;;;;6.03;88.70;101228.72;4915553;29;20111;-85
2023/02/18 00:41:34;;;;;;;5.70;1.05;;;;;;;6.04;88.70;101225.28;4930165;29;20510;-83
2023/02/18 00:44:00;;;;;;;6.15;1.00;;;;;;;6.04;88.98;101222.69;4926251;29;20525;-85
2023/02/18 00:46:28;;;;;;;4.53;1.40;;;;;;;6.00;88.83;101213.03;4906542;29;20047;-82
2023/02/18 00:48:56;;;;;;;8.93;1.10;;;;;;;5.91;89.55;101216.34;4897507;29;20799;-85
2023/02/18 00:51:24;;;;;;;6.72;1.13;;;;;;;5.89;89.70;101228.41;4908999;29;20139;-83
2023/02/18 00:53:50;;;;;;;7.90;2.58;;;;;;;5.90;89.76;101225.84;4918227;29;20051;-82
2023/02/18 00:56:17;;;;;;;11.23;2.20;;;;;;;5.87;89.63;101225.78;4913707;29;20048;-82
2023/02/18 00:58:44;;;;;;;11.77;2.53;;;;;;;5.83;89.83;101220.47;4909163;29;20454;-82
2023/02/18 01:01:23;;;;;;;8.82;1.33;;;;;;;5.77;90.47;101223.84;4897086;29;20051;-82
2023/02/18 01:03:49;;;;;;;4.82;1.38;;;;;;;5.75;90.64;101230.72;4898883;29;20130;-83
2023/02/18 01:06:16;;;;;;;9.40;2.20;;;;;;;5.69;91.42;101226.28;4895876;29;20782;-83
2023/02/18 01:08:43;;;;;;;8.45;1.70;;;;;;;5.65;91.59;101232.28;4900989;29;20047;-82
2023/02/18 01:11:11;;;;;;;6.85;1.60;;;;;;;5.67;91.79;101229.69;4926010;29;20681;-83
2023/02/18 01:13:40;;;;;;;4.63;1.05;;;;;;;5.70;91.80;101234.97;4926711;29;20074;-85
2023/02/18 01:16:07;;;;;;;10.05;2.33;;;;;;;5.76;91.55;101235.09;4913166;29;20132;-85
2023/02/18 01:18:34;;;;;;;5.82;0.77;;;;;;;5.84;91.14;101236.13;4895943;29;20051;-84
2023/02/18 01:21:01;;;;;;;5.85;1.30;;;;;;;5.96;90.49;101227.69;4900365;29;20044;-86
2023/02/18 01:23:28;;;;;;;6.32;1.60;;;;;;;6.07;90.30;101223.59;4912380;29;20031;-85
2023/02/18 01:25:55;;;;;;;7.03;1.25;;;;;;;6.10;89.94;101222.78;4899123;29;20126;-87
2023/02/18 01:28:24;;;;;;;6.38;0.82;;;;;;;6.18;89.23;101223.81;4894242;29;20487;-85
2023/02/18 01:30:50;;;;;;;6.03;0.95;;;;;;;6.18;89.48;101221.22;4898239;29;20051;-83
2023/02/18 01:33:17;;;;;;;9.52;1.88;;;;;;;6.20;89.18;101226.44;4901308;29;20090;-83
2023/02/18 01:35:44;;;;;;;3.95;1.27;;;;;;;6.24;88.96;101221.28;4899897;29;20048;-82
2023/02/18 01:38:10;;;;;;;5.55;1.15;;;;;;;6.29;88.82;101213.59;4909462;29;20047;-83
2023/02/18 01:40:52;;;;;;;5.25;1.33;;;;;;;6.34;88.34;101203.28;4913680;29;20122;-83
2023/02/18 01:43:22;;;;;;;6.28;1.52;;;;;;;6.37;88.46;101212.00;4911284;29;20051;-82
2023/02/18 01:46:03;;;;;;;8.80;1.30;;;;;;;6.42;88.40;101201.69;4912443;29;20183;-83
2023/02/18 01:48:43;;;;;;;9.23;1.10;;;;;;;6.46;88.49;101208.69;4915714;29;20534;-84
2023/02/18 01:51:38;;;;;;;3.63;1.50;;;;;;;6.48;88.66;101211.31;4912217;29;20141;-83
2023/02/18 01:54:13;;;;;;;;;;;;;;;6.51;88.08;101214.84;4898745;29;20044;-82
2023/02/18 01:56:51;;;;;;;7.72;1.65;;;;;;;6.52;88.39;101218.31;4921259;29;19923;-84
2023/02/18 01:59:24;;;;;;;6.90;1.52;;;;;;;6.54;88.27;101207.06;4912997;29;20530;-85
2023/02/18 02:01:52;;;;;;;8.93;1.02;;;;;;;6.57;88.27;101206.25;4891436;29;20051;-83
2023/02/18 02:04:20;;;;;;;3.50;0.95;;;;;;;6.58;88.62;101200.19;4908944;29;20438;-81
2023/02/18 02:06:46;;;;;;;8.70;1.10;;;;;;;6.60;88.37;101194.19;4925780;29;20075;-84
2023/02/18 02:09:18;;;;;;;6.65;1.23;;;;;;;6.65;88.42;101188.16;4929120;29;20028;-83
2023/02/18 02:12:09;;;;;;;5.20;1.00;;;;;;;6.72;88.02;101179.63;4929110;29;20096;-83
2023/02/18 02:15:00;;;;;;;6.20;1.58;;;;;;;6.71;88.03;101168.31;4915596;29;20043;-85
2023/02/18 02:18:11;;;;;;;8.25;1.58;;;;;;;6.75;87.80;101175.34;4913356;29;20048;-83
2023/02/18 02:21:31;;;;;;;2.33;1.27;;;;;;;6.67;88.46;101166.53;4929305;29;20048;-84
2023/02/18 02:24:54;;;;;;;6.38;1.15;;;;;;;6.77;88.13;101173.63;4914602;29;20051;-83
2023/02/18 02:27:29;;;;;;;5.13;1.20;;;;;;;6.73;88.64;101179.63;4882164;29;20055;-83
2023/02/18 02:30:35;;;;;;;9.93;1.80;;;;;;;6.72;88.61;101183.09;4904256;29;20047;-83
2023/02/18 02:33:13;;;;;;;6.82;3.20;;;;;;;6.72;88.96;101174.41;4932295;29;20047;-82
2023/02/18 02:35:54;;;;;;;4.38;1.50;;;;;;;6.79;89.09;101179.75;4930733;29;20079;-84
2023/02/18 02:38:35;;;;;;;4.13;1.10;;;;;;;6.77;89.32;101176.22;4927566;29;20062;-83
2023/02/18 02:41:27;;;;;;;4.10;1.27;;;;;;;6.81;89.89;101169.34;4896777;29;20059;-82
2023/02/18 02:44:09;;;;;;;8.25;1.63;;;;;;;6.83;90.12;101177.16;4917425;29;20142;-83
2023/02/18 02:46:44;;;;;;;6.35;1.80;;;;;;;6.85;90.15;101165.06;4924594;29;20047;-82
2023/02/18 02:50:03;;;;;;;10.63;1.40;;;;;;;6.87;90.77;101168.56;4932916;29;20044;-84
2023/02/18 02:52:38;;;;;;;6.82;1.42;;;;;;;6.90;90.92;101160.81;4920722;29;20146;-84
2023/02/18 02:55:11;;;;;;;8.70;1.85;;;;;;;6.90;90.82;101153.88;4912780;29;20054;-83
2023/02/18 02:57:49;;;;;;;9.70;1.67;;;;;;;6.88;91.34;101150.38;4911684;29;20525;-84
2023/02/18 03:00:21;;;;;;;5.30;1.35;;;;;;;6.89;91.63;101148.63;4935527;29;20099;-84
2023/02/18 03:03:17;;;;;;;3.75;1.50;;;;;;;6.91;92.13;101146.91;4928865;29;20780;-82
2023/02/18 03:06:06;;;;;;;4.25;1.13;;;;;;;6.91;92.57;101139.09;4906809;29;20075;-84
2023/02/18 03:09:26;;;;;;;6.13;1.92;;;;;;;6.95;93.19;101140.94;4930931;29;20044;-85
2023/02/18 03:12:26;;;;;;;7.45;2.13;;;;;;;7.01;93.42;101137.53;4901796;29;20458;-83
2023/02/18 03:15:18;;;;;;;8.35;2.25;;;;;;;7.02;94.47;101139.28;4912526;29;20628;-85
2023/02/18 03:17:57;;;;;;;6.30;1.83;;;;;;;6.98;94.92;101134.88;4902532;29;20135;-83
2023/02/18 03:20:29;;;;;;;8.20;1.98;;;;;;;6.98;96.21;101130.53;4931507;29;20083;-84
2023/02/18 03:22:58;;;;;;;7.22;1.85;;;;;;;6.98;97.11;101122.75;4911536;29;20118;-83
2023/02/18 03:25:25;;;;;;;5.95;2.88;;;;;;;6.98;98.28;101108.84;4912134;29;20551;-83
2023/02/18 03:27:58;;;;;;;8.20;2.42;;;;;;;6.96;98.91;101114.03;4912914;29;20063;-83
2023/02/18 03:30:30;;;;;;;11.32;2.90;;;;;;;6.98;99.65;101109.72;4901789;29;20051;-83
2023/02/18 03:33:04;;;;;;;10.75;2.20;;;;;;;6.99;100.00;101097.56;4929769;29;20953;-83
2023/02/18 03:35:30;;;;;;;5.72;3.03;;;;;;;7.01;100.00;101098.47;4909087;29;20115;-83
2023/02/18 03:38:15;;;;;;;10.02;3.65;;;;;;;6.99;100.00;101098.47;4912388;29;20048;-84
2023/02/18 03:40:42;;;;;;;17.83;5.15;;;;;;;7.02;100.00;101095.88;4919738;29;20503;-82
2023/02/18 03:43:09;;;;;;;15.23;7.05;;;;;;;7.06;100.00;101092.47;4918513;29;20040;-84
2023/02/18 03:45:35;;;;;;;17.02;6.60;;;;;;;7.14;100.00;101099.50;4924162;29;20639;-83
2023/02/18 03:48:02;;;;;;;16.15;7.10;;;;;;;7.16;100.00;101087.38;4914177;29;20043;-83
2023/02/18 03:50:28;;;;;;;12.00;6.63;;;;;;;7.19;100.00;101082.22;4927140;29;20123;-83
2023/02/18 03:52:55;;;;;;;15.98;7.43;;;;;;;7.17;100.00;101086.53;4896566;29;20075;-86
2023/02/18 03:55:24;;;;;;;25.40;8.80;;;;;;;7.18;100.00;101073.50;4897489;29;20673;-85
2023/02/18 03:57:51;;;;;;;14.57;8.23;;;;;;;7.20;100.00;101081.38;4916551;29;20844;-83
2023/02/18 04:00:18;;;;;;;18.30;9.82;;;;;;;7.26;100.00;101073.59;4927630;29;20043;-84
2023/02/18 04:02:45;;;;;;;22.38;10.75;;;;;;;7.27;100.00;101068.44;4924840;29;20047;-83
2023/02/18 04:05:11;;;;;;;20.67;10.27;;;;;;;7.28;100.00;101075.38;4912926;29;20237;-84
2023/02/18 04:07:38;;;;;;;21.45;11.77;;;;;;;7.26;100.00;101068.41;4898223;29;20089;-83
2023/02/18 04:10:07;;;;;;;22.15;10.45;;;;;;;7.23;100.00;101070.97;4914620;29;20135;-83
2023/02/18 04:12:36;;;;;;;19.70;12.50;;;;;;;7.22;100.00;101067.50;4915092;29;20044;-83
2023/02/18 04:15:06;;;;;;;24.98;10.85;;;;;;;7.25;100.00;101061.47;4935387;29;20545;-83
2023/02/18 04:17:34;;;;;;;24.17;12.18;;;;;;;7.25;100.00;101061.47;4911715;29;20597;-83
2023/02/18 04:20:03;;;;;;;22.90;9.63;;;;;;;7.25;100.00;101053.66;4936432;29;20069;-85
2023/02/18 04:22:30;;;;;;;22.13;10.57;;;;;;;7.26;100.00;101057.97;4900397;29;20044;-83
2023/02/18 04:24:56;;;;;;;19.08;11.32;;;;;;;7.25;100.00;101067.53;4923277;29;20071;-85
2023/02/18 04:27:24;;;;;;;20.17;10.90;;;;;;;7.22;100.00;101062.31;4926103;29;20101;-83
2023/02/18 04:29:53;;;;;;;19.25;10.27;;;;;;;7.17;100.00;101066.59;4883849;29;20043;-81
2023/02/18 04:32:20;;;;;;;28.95;11.75;;;;;;;7.10;100.00;101065.63;4915732;29;20189;-84
2023/02/18 04:34:46;;;;;;;24.45;12.40;;;;;;;7.03;100.00;101058.59;4916335;29;20051;-85
2023/02/18 04:37:13;;;;;;;24.70;11.68;;;;;;;6.97;100.00;101049.84;4908685;29;20055;-84
2023/02/18 04:39:40;;;;;;;25.85;11.05;;;;;;;6.92;100.00;101054.97;4914507;29;20052;-86
2023/02/18 04:42:09;;;;;;;33.28;12.00;;;;;;;6.86;100.00;101052.31;4910876;29;20043;-85
2023/02/18 04:44:38;;;;;;;21.38;12.00;;;;;;;6.81;100.00;101044.44;4931392;29;20064;-84
2023/02/18 04:47:06;;;;;;;22.73;11.63;;;;;;;6.76;100.00;101041.75;4910231;29;20047;-86
2023/02/18 04:49:33;;;;;;;19.23;11.23;;;;;;;6.73;100.00;101033.06;4914138;29;20047;-85
2023/02/18 04:52:00;;;;;;;31.80;13.48;;;;;;;6.67;100.00;101033.84;4900664;29;20051;-84
2023/02/18 04:54:31;;;;;;;23.67;11.43;;;;;;;6.62;100.00;101032.91;4911460;29;20052;-85
2023/02/18 04:56:58;;;;;;;26.02;11.85;;;;;;;6.58;100.00;101024.22;4910699;29;20064;-85
2023/02/18 04:59:24;;;;;;;26.33;11.75;;;;;;;6.54;100.00;101027.59;4901123;29;20036;-85
2023/02/18 05:01:51;;;;;;;24.02;12.27;;;;;;;6.51;100.00;101014.56;4919494;29;20108;-86
2023/02/18 05:04:18;;;;;;;32.53;11.80;;;;;;;6.44;100.00;101013.63;4924429;29;20059;-84
2023/02/18 05:06:44;;;;;;;23.30;11.07;;;;;;;6.44;100.00;101026.63;4910844;29;20059;-85
2023/02/18 05:09:11;;;;;;;26.30;11.93;;;;;;;6.41;100.00;101010.09;4915258;29;20075;-83
2023/02/18 05:11:38;;;;;;;24.48;11.82;;;;;;;6.40;100.00;101014.44;4910807;29;20052;-83
2023/02/18 05:14:07;;;;;;;20.83;10.63;;;;;;;6.39;100.00;100998.81;4903875;29;20051;-85
2023/02/18 05:16:34;;;;;;;24.55;12.63;;;;;;;6.39;100.00;100993.59;4900852;29;20665;-84
2023/02/18 05:19:01;;;;;;;21.65;11.52;;;;;;;6.40;100.00;100988.41;4896381;29;20043;-83
2023/02/18 05:21:40;;;;;;;24.95;13.13;;;;;;;6.42;100.00;100985.84;4910140;29;20055;-84
2023/02/18 05:24:20;;;;;;;24.60;11.55;;;;;;;6.47;100.00;100989.38;4910759;29;20059;-86
2023/02/18 05:26:46;;;;;;;28.92;13.32;;;;;;;6.50;100.00;100983.34;4913096;29;20044;-85
2023/02/18 05:29:13;;;;;;;21.98;12.95;;;;;;;6.53;100.00;100981.66;4928407;29;20068;-85
2023/02/18 05:31:39;;;;;;;24.02;13.48;;;;;;;6.55;100.00;100981.69;4916977;29;20051;-85
2023/02/18 05:34:09;;;;;;;21.05;12.10;;;;;;;6.55;100.00;100974.72;4936347;29;20058;-87
2023/02/18 05:36:36;;;;;;;23.92;12.82;;;;;;;6.60;100.00;100969.59;4902982;29;20111;-85
2023/02/18 05:39:02;;;;;;;21.05;13.27;;;;;;;6.61;100.00;100967.00;4913275;29;20559;-84
2023/02/18 05:41:29;;;;;;;20.85;13.00;;;;;;;6.65;100.00;100965.34;4920156;29;20043;-85
2023/02/18 05:46:39;;;;;;;24.83;12.73;;;;;;;6.67;100.00;100945.38;4917444;29;20604;-84
2023/02/18 05:49:10;;;;;;;27.48;14.60;;;;;;;6.66;100.00;100934.97;4915541;29;20664;-86
2023/02/18 05:51:36;;;;;;;26.60;14.98;;;;;;;6.71;100.00;100936.75;4902101;29;20080;-85
2023/02/18 05:54:04;;;;;;;34.85;16.95;;;;;;;6.76;100.00;100934.22;4901714;29;20035;-85
2023/02/18 05:56:30;;;;;;;31.95;17.80;;;;;;;6.84;100.00;100931.72;4909971;29;20051;-84
2023/02/18 06:01:43;;;;;;;28.30;17.55;;;;;;;6.90;100.00;100924.84;4914964;29;20056;-84
2023/02/18 06:04:10;;;;;;;32.95;18.45;;;;;;;6.91;100.00;100916.19;4928437;29;20506;-83
2023/02/18 06:06:37;;;;;;;31.05;19.17;;;;;;;6.93;100.00;100911.84;4933443;29;20055;-84
2023/02/18 06:09:04;;;;;;;41.25;19.98;;;;;;;6.97;100.00;100907.56;4936059;29;20043;-84
2023/02/18 06:11:31;;;;;;;32.08;17.90;;;;;;;7.01;100.00;100904.13;4904546;29;20047;-83
2023/02/18 06:13:58;;;;;;;31.70;18.45;;;;;;;7.05;100.00;100894.63;4934313;29;20048;-84
2023/02/18 06:16:24;;;;;;;29.67;16.75;;;;;;;7.08;100.00;100892.91;4915548;29;20087;-83
2023/02/18 06:18:51;;;;;;;33.88;16.60;;;;;;;7.11;100.00;100889.47;4933450;29;20039;-84
2023/02/18 06:21:18;;;;;;;28.38;15.93;;;;;;;7.12;100.00;100886.88;4930178;29;20060;-87
2023/02/18 06:23:45;;;;;;;30.40;16.17;;;;;;;7.14;100.00;100878.22;4914944;29;20051;-84
2023/02/18 06:26:12;;;;;;;27.85;15.45;;;;;;;7.12;100.00;100866.06;4907455;29;20047;-85
2023/02/18 06:28:38;;;;;;;32.15;16.98;;;;;;;7.14;100.00;100853.03;4901932;29;20055;-85
2023/02/18 06:31:05;;;;;;;30.20;16.52;;;;;;;7.13;100.00;100843.47;4917563;29;20067;-85
2023/02/18 06:33:32;;;;;;;28.23;14.35;;;;;;;7.16;100.00;100838.31;4921631;29;20107;-83
2023/02/18 06:36:02;;;;;;;27.77;15.13;;;;;;;7.17;100.00;100833.97;4916043;29;20115;-83
2023/02/18 06:38:29;;;;;;;28.00;14.75;;;;;;;7.19;100.00;100827.91;4921069;29;20052;-84
2023/02/18 06:40:55;;;;;;;27.80;15.05;;;;;;;7.21;100.00;100826.22;4922726;29;20056;-86
2023/02/18 06:43:22;;;;;;;29.05;15.50;;;;;;;7.22;100.00;100827.97;4919489;29;20051;-87
2023/02/18 06:45:49;;;;;;;25.00;14.57;;;;;;;7.24;100.00;100812.34;4922087;29;20095;-87
2023/02/18 06:48:15;;;;;;;27.38;14.63;;;;;;;7.28;100.00;100819.31;4905758;29;20702;-86
2023/02/18 06:50:43;;;;;;;31.20;14.95;;;;;;;7.27;100.00;100817.56;4920233;29;20442;-85
2023/02/18 06:53:09;;;;;;;25.63;14.80;;;;;;;7.27;100.00;100812.34;4915479;29;20724;-85
2023/02/18 06:55:36;;;;;;;29.92;15.65;;;;;;;7.30;100.00;100804.59;4921039;29;20052;-84
2023/02/18 06:58:03;;;;;;;26.25;14.23;;;;;;;7.29;100.00;100801.09;4915778;29;20047;-85
2023/02/18 07:00:30;;;;;;;21.17;12.65;;;;;;;7.33;100.00;100798.53;4918329;29;20058;-88
2023/02/18 07:02:58;;;;;;;24.48;13.45;;;;;;;7.33;100.00;100786.38;4917999;29;20044;-83
2023/02/18 07:05:25;;;;;;;27.65;13.52;;;;;;;7.35;100.00;100784.63;4898186;29;20179;-85
2023/02/18 07:07:51;;;;;;;27.83;13.80;;;;;;;7.38;100.00;100783.75;4932926;29;20048;-86
2023/02/18 07:10:18;;;;;;;28.10;14.88;;;;;;;7.40;100.00;100784.66;4936534;28;20060;-85
2023/02/18 07:12:44;;;;;;;23.75;13.57;;;;;;;7.41;100.00;100770.78;4913848;29;20059;-85
2023/02/18 07:15:11;;;;;;;26.00;12.52;;;;;;;7.41;100.00;100763.84;4907751;29;20056;-84
2023/02/18 07:17:38;;;;;;;22.00;13.20;;;;;;;7.41;100.00;100771.66;4917642;29;20103;-85
2023/02/18 07:20:06;;;;;;;24.50;14.60;;;;;;;7.41;100.00;100761.22;4914147;29;20047;-85
2023/02/18 07:22:33;;;;;;;25.02;12.68;;;;;;;7.39;100.00;100759.47;4902875;29;20075;-85
2023/02/18 07:24:59;;;;;;;18.00;9.88;;;;;;;7.41;100.00;100760.38;4918182;29;20048;-86
2023/02/18 07:27:26;;;;;;;21.00;11.50;;;;;;;7.41;100.00;100756.03;4902383;29;20052;-85
2023/02/18 07:29:53;;;;;;;20.17;11.50;;;;;;;7.41;100.00;100744.75;4919394;29;20134;-85
2023/02/18 07:32:20;;;;;;;19.77;10.77;;;;;;;7.41;100.00;100732.56;4929867;29;20137;-84
2023/02/18 07:34:47;;;;;;;19.90;11.82;;;;;;;7.42;100.00;100725.66;4914072;29;20056;-84
2023/02/18 07:37:13;;;;;;;14.00;8.52;;;;;;;7.43;100.00;100716.94;4927113;29;20058;-85
2023/02/18 07:39:42;;;;;;;19.15;10.32;;;;;;;7.43;100.00;100719.56;4901526;29;20050;-83
2023/02/18 07:42:11;;;;;;;14.88;9.88;;;;;;;7.44;100.00;100716.09;4912438;29;20115;-85
2023/02/18 07:44:39;;;;;;;15.90;9.38;;;;;;;7.46;100.00;100703.97;4913711;29;20134;-87
2023/02/18 07:47:07;;;;;;;17.63;10.70;;;;;;;7.47;100.00;100705.72;4916542;29;20052;-87
2023/02/18 07:49:34;;;;;;;12.93;8.50;;;;;;;7.51;100.00;100704.84;4905067;29;20448;-84
2023/02/18 07:52:01;;;;;;;14.05;9.10;;;;;;;7.55;100.00;100695.31;4921670;29;20087;-83
2023/02/18 07:54:28;;;;;;;15.57;9.00;;;;;;;7.60;100.00;100694.47;4917991;29;20044;-86
2023/02/18 07:56:54;;;;;;;15.20;8.32;;;;;;;7.71;100.00;100688.44;4924825;29;20206;-84
2023/02/18 07:59:21;;;;;;;11.90;7.75;;;;;;;7.82;100.00;100683.25;4910642;29;20052;-84
2023/02/18 08:01:48;;;;;;;14.57;7.93;;;;;;;7.89;100.00;100674.59;4931889;29;20094;-84
2023/02/18 08:04:15;;;;;;;10.38;6.60;;;;;;;7.97;100.00;100662.44;4914803;29;20075;-83
2023/02/18 08:06:45;;;;;;;11.20;6.20;;;;;;;8.13;100.00;100668.53;4901334;29;20099;-84
2023/02/18 08:09:14;;;;;;;11.57;5.75;;;;;;;8.27;100.00;100669.41;4915894;29;20423;-84
2023/02/18 08:11:41;;;;;;;8.82;4.90;;;;;;;8.42;100.00;100668.56;4900364;29;20423;-86
2023/02/18 08:14:08;;;;;;;7.65;4.30;;;;;;;8.55;100.00;100658.16;4918492;29;20052;-84
2023/02/18 08:16:35;;;;;;;8.35;4.35;;;;;;;8.69;100.00;100665.97;4900070;29;20515;-85
2023/02/18 08:19:02;;;;;;;5.80;3.72;;;;;;;8.76;100.00;100662.47;4904384;29;20071;-86
2023/02/18 08:21:29;;;;;;;5.38;2.80;;;;;;;8.83;100.00;100669.44;4901475;29;20143;-84
2023/02/18 08:23:59;;;;;;;3.75;2.25;;;;;;;8.85;100.00;100653.75;4930295;29;20564;-85
2023/02/18 08:26:26;;;;;;;3.42;2.78;;;;;;;8.96;100.00;100646.78;4899843;29;20143;-84
2023/02/18 08:28:53;;;;;;;4.75;2.58;;;;;;;9.02;100.00;100658.94;4912578;29;20063;-84
2023/02/18 08:31:26;;;;;;;3.42;2.00;;;;;;;9.10;100.00;100649.38;4914588;29;20048;-86
2023/02/18 08:33:54;;;;;;;;;;;;;;;9.19;100.00;100644.13;4913324;29;20051;-87
2023/02/18 08:36:22;;;;;;;1.55;1.42;;;;;;;9.27;100.00;100637.13;4901396;29;19923;-83
2023/02/18 08:38:49;;;;;;;2.65;1.45;;;;;;;9.31;100.00;100624.03;4930506;29;20054;-84
2023/02/18 08:41:19;;;;;;;1.83;1.50;;;;;;;9.33;100.00;100630.13;4917212;29;20174;-84
2023/02/18 08:43:46;;;;;;;3.08;1.90;;;;;;;9.27;100.00;100637.13;4928759;29;20051;-85
2023/02/18 08:46:14;;;;;;;2.83;2.60;;;;;;;9.33;100.00;100619.69;4910319;29;20130;-85
2023/02/18 08:48:40;;;;;;;1.70;1.58;;;;;;;9.25;100.00;100625.78;4908942;29;20044;-85
2023/02/18 08:51:22;;;;;;;1.75;1.65;;;;;;;9.28;100.00;100619.69;4898408;29;20055;-86
2023/02/18 08:53:49;;;;;;;2.15;1.95;;;;;;;9.25;100.00;100620.56;4898085;29;20103;-86
2023/02/18 08:56:17;;;;;;;1.80;1.60;;;;;;;9.27;100.00;100597.94;4925260;29;20059;-85
2023/02/18 08:58:44;;;;;;;1.70;1.60;;;;;;;9.35;100.00;100612.72;4909215;29;20842;-85
2023/02/18 09:01:12;;;;;;;1.85;1.75;;;;;;;9.39;100.00;100612.69;4895778;29;20093;-86
2023/02/18 09:03:40;;;;;;;1.88;1.65;;;;;;;9.38;100.00;100616.16;4915139;29;20406;-86
2023/02/18 09:06:07;;;;;;;1.08;1.02;;;;;;;9.47;100.00;100596.09;4923648;29;20063;-85
2023/02/18 09:08:34;;;;;;;1.40;1.30;;;;;;;9.52;100.00;100600.41;4915025;29;20136;-83
2023/02/18 09:11:04;;;;;;;1.40;1.30;;;;;;;9.55;100.00;100591.69;4912538;29;20040;-86
2023/02/18 09:13:33;;;;;;;1.85;1.52;;;;;;;9.63;100.00;100597.72;4928220;29;20055;-84
2023/02/18 09:16:09;;;;;;;1.13;1.02;;;;;;;9.70;100.00;100593.34;4895197;29;20721;-85
2023/02/18 09:18:36;;;;;;;1.10;1.00;;;;;;;9.76;100.00;100595.91;4928785;29;20075;-85
2023/02/18 09:21:05;;;;;;;0.90;0.82;;;;;;;9.88;100.00;100576.66;4913037;29;20107;-84
2023/02/18 09:23:39;;;;;;;0.70;0.70;;;;;;;9.92;100.00;100568.78;4897599;29;20131;-85
2023/02/18 09:26:09;;;;;;;0.85;0.75;;;;;;;10.00;100.00;100567.84;4919836;29;20048;-87
2023/02/18 09:28:41;;;;;;;0.68;0.68;;;;;;;10.10;100.00;100577.34;4927068;29;20067;-84
2023/02/18 09:31:21;;;;;;;5.35;0.88;;;;;;;10.13;100.00;100582.59;4917067;29;20050;-85
2023/02/18 09:33:53;;;;;;;0.50;0.50;;;;;;;10.13;100.00;100582.59;4915131;29;20491;-84
2023/02/18 09:36:20;;;;;;;0.75;0.43;;;;;;;10.14;100.00;100579.06;4935773;29;20090;-85
2023/02/18 09:38:47;;;;;;;0.60;0.60;;;;;;;10.23;100.00;100568.56;4908817;29;20063;-84
2023/02/18 09:41:33;;;;;;;0.32;0.32;;;;;;;10.28;100.00;100581.56;4908095;29;20067;-83
2023/02/18 09:44:05;;;;;;;1.05;0.50;;;;;;;10.31;100.00;100567.59;4938874;29;20202;-84
2023/02/18 09:46:42;;;;;;;0.40;0.35;;;;;;;10.33;100.00;100579.78;4910398;29;20061;-85
2023/02/18 09:49:17;;;;;;;0.43;0.43;;;;;;;10.31;100.00;100580.69;4938508;29;20047;-85
2023/02/18 09:51:44;;;;;;;1.98;0.38;;;;;;;10.20;100.00;100578.16;4906214;29;20044;-86
2023/02/18 09:54:15;;;;;;;0.35;0.35;;;;;;;10.10;100.00;100561.66;4900503;29;20138;-85
2023/02/18 09:56:44;;;;;;;0.50;0.50;;;;;;;10.07;100.00;100583.47;4916200;29;20071;-84
2023/02/18 09:59:21;;;;;;;0.10;0.10;;;;;;;10.09;100.00;100554.72;4918428;29;20561;-83
2023/02/18 10:01:55;;;;;;;1.05;0.20;;;;;;;10.16;100.00;100572.09;4915907;29;20131;-85
2023/02/18 10:04:30;;;;;;;0.22;0.20;;;;;;;10.24;100.00;100564.16;4934051;29;20055;-84
2023/02/18 10:06:58;;;;;;;0.22;0.22;;;;;;;10.23;100.00;100546.72;4904481;29;20395;-84
2023/02/18 10:09:38;;;;;;;0.30;0.20;;;;;;;10.24;100.00;100551.09;4929857;29;20079;-86
2023/02/18 10:12:16;;;;;;;0.28;0.28;;;;;;;10.32;100.00;100543.16;4902638;29;20051;-85
2023/02/18 10:14:59;;;;;;;0.17;0.17;;;;;;;10.33;100.00;100555.38;4918598;29;20138;-85
2023/02/18 10:17:30;;;;;;;0.30;0.30;;;;;;;10.27;100.00;100557.16;4932845;29;20091;-87
2023/02/18 10:20:01;;;;;;;0.35;0.22;;;;;;;10.21;100.00;100561.59;4902944;29;20044;-84
2023/02/18 10:22:28;;;;;;;0.20;0.20;;;;;;;10.12;100.00;100561.66;4901231;29;20549;-85
2023/02/18 10:24:59;;;;;;;0.30;0.30;;;;;;;10.02;100.00;100569.56;4910662;29;20150;-86
2023/02/18 10:27:33;;;;;;;0.77;0.40;;;;;;;9.88;100.00;100551.41;4926789;29;20059;-85
2023/02/18 10:30:21;;;;;;;1.52;1.42;;;;;;;9.77;100.00;100559.31;4896414;29;20051;-86
2023/02/18 10:32:53;;;;;;;1.45;0.60;;;;;;;9.69;100.00;100558.50;4916362;29;20151;-86
2023/02/18 10:35:43;;;;;;;0.30;0.30;;;;;;;9.60;100.00;100551.56;4916057;29;21268;-84
2023/02/18 10:38:37;;;;;;;0.50;0.30;;;;;;;9.62;100.00;100550.72;4932921;29;20142;-87
2023/02/18 10:41:19;;;;;;;;;;;;;;;9.53;100.00;100568.19;4904290;29;20043;-85
2023/02/18 10:44:35;;;;;;;0.88;0.88;;;;;;;9.54;100.00;100562.09;4915894;28;19923;-86
2023/02/18 10:47:29;;;;;;;0.52;0.50;;;;;;;9.56;100.00;100567.31;4917801;29;20067;-86
2023/02/18 10:50:00;;;;;;;0.37;0.20;;;;;;;9.58;100.00;100544.63;4929368;29;20052;-85
2023/02/18 10:52:31;;;;;;;0.50;0.35;;;;;;;9.55;100.00;100552.50;4913835;29;20154;-87
2023/02/18 10:54:57;;;;;;;0.73;0.40;;;;;;;9.56;100.00;100544.63;4910862;29;20067;-86
2023/02/18 10:57:24;;;;;;;1.13;0.20;;;;;;;9.63;100.00;100539.38;4928913;29;20586;-86
2023/02/18 11:00:18;;;;;;;0.40;0.20;;;;;;;9.72;100.00;100547.16;4920531;29;20427;-86
2023/02/18 11:02:47;;;;;;;0.20;0.20;;;;;;;9.83;100.00;100534.88;4906699;29;20047;-86
2023/02/18 11:05:27;;;;;;;0.88;0.30;;;;;;;9.83;100.00;100532.25;4929101;29;20612;-87
2023/02/18 11:07:58;;;;;;;0.20;0.20;;;;;;;9.90;100.00;100528.69;4914616;29;20058;-88
2023/02/18 11:10:30;;;;;;;0.13;0.13;;;;;;;10.01;100.00;100535.59;4898571;29;20746;-86
2023/02/18 11:13:02;;;;;;;0.45;0.45;;;;;;;10.11;100.00;100532.03;4898941;29;20061;-86
2023/02/18 11:15:29;;;;;;;0.30;0.20;;;;;;;10.10;100.00;100523.31;4914066;29;20043;-85
2023/02/18 11:18:12;;;;;;;1.05;0.50;;;;;;;10.03;100.00;100526.00;4926009;29;20048;-86
2023/02/18 11:20:40;;;;;;;0.20;0.20;;;;;;;9.92;100.00;100539.16;4912712;29;20048;-85
2023/02/18 11:23:06;;;;;;;0.40;0.40;;;;;;;9.87;100.00;100533.13;4932106;29;20139;-88
2023/02/18 11:25:40;;;;;;;0.65;0.57;;;;;;;9.75;100.00;100545.41;4931755;29;20061;-85
2023/02/18 11:28:13;;;;;;;0.43;0.43;;;;;;;9.66;100.00;100539.34;4920770;29;20083;-84
2023/02/18 11:30:43;;;;;;;0.30;0.30;;;;;;;9.53;100.00;100542.06;4931165;29;20056;-87
2023/02/18 11:33:19;;;;;;;0.40;0.40;;;;;;;9.52;100.00;100558.59;4907478;29;20859;-85
2023/02/18 11:35:52;;;;;;;1.08;0.55;;;;;;;9.49;100.00;100544.69;4916149;29;20161;-85
2023/02/18 11:38:42;;;;;;;0.75;0.75;;;;;;;9.42;100.00;100543.88;4903306;29;20134;-86
2023/02/18 11:41:17;;;;;;;0.50;0.50;;;;;;;9.38;100.00;100540.38;4934787;29;20043;-87
2023/02/18 11:43:51;;;;;;;0.73;0.55;;;;;;;9.39;100.00;100530.81;4906511;29;20044;-85
2023/02/18 11:46:26;;;;;;;;;;;;;;;9.35;100.00;100540.41;4903041;29;20068;-88
2023/02/18 11:48:54;;;;;;;0.50;0.40;;;;;;;9.33;100.00;100536.09;4920538;29;19952;-86